VEAT/IXA METAR and TAF weather

Enter ICAO airport designator
Station Type Date Time Source
VEAT METAR 2021/07/31 00:00 UTC NOAA

VEAT 310000Z 14003KT 4000 -RA FEW010 SCT018 BKN100 26/25 Q1003 NOSIG


Station Type Date Time Source
VEAT Decoded METAR 2021/07/31 00:00 UTC NOAA

Agartala, India (VEAT) 23-53N 091-15E 16M
Jul 30, 2021 - 08:00 PM EDT / 2021.07.31 0000 UTC
Wind: from the SE (140 degrees) at 3 MPH (3 KT):0
Visibility: 2 mile(s):0
Sky conditions: mostly cloudy
Weather: light rain
Temperature: 78 F (26 C)
Dew Point: 77 F (25 C)
Relative Humidity: 94%
Pressure (altimeter): 29.62 in. Hg (1003 hPa)
ob: VEAT 310000Z 14003KT 4000 -RA FEW010 SCT018 BKN100 26/25 Q1003 NOSIG
cycle: 0

Station Type Date Time Source
VEAT TAF 2021/07/10 12:00 UTC NOAA

TAF VEAT 101100Z 1012/1021 09003KT 5000 BR FEW018 SCT100=

Example: see airport list